Detall de PIREP

Printer-friendly versionPDF version

[2014/07/13 15:54:00]
Flight IATA:CT2214
Pilot Number:012
Company ICAO:CAT
Aircraft Type:MD11/E
PAX:0
Aircraft Registration:CARGO
Departing Airport: LFMP
Destination Airport: LFRS
Alternate Airport:LFRZ
Online: VATSIM
Route:ORBIL/N310F180 G36 GAI G39 SECHE/M080F280 UN863 MANAK DCT
Flight Level:F280
No Slew and time accel
No pause
Crash detect
Detect pilot in Cockpit between each 30 and 45 minutes
15:54 Zero fuel Weight: 372066 Lbs, Fuel Weight: 45493 Lbs
15:54 VATSIM:LFMP 131530Z 14007KT 100V180 9999 SCT066 SCT250 28/13 Q1014 NOSIG
15:54 VATSIM:LFRS 131530Z 27013KT 230V300 9999 BKN019 SCT028 21/16 Q1012 NOSIG
15:55 Parking Brakes off
15:58 Take-off
15:58 Take off Weight: 416594 Lbs
15:58 Wind: 145º @ 007 Knots Heading: 326º
15:58 POS N42º 44´ 59´´ E002º 51´ 53´´
15:58 Gear Up: 196 Knots
15:58 Flaps:3 at 197 Knots
15:59 Flaps:2 at 217 Knots
15:59 Flaps:3 at 220 Knots
15:59 Flaps:2 at 222 Knots
15:59 Flaps:1 at 223 Knots
15:59 Flaps:0 at 238 Knots
16:12 TOC
16:12 Fuel Weight: 36418 Lb
16:13 Wind:314º@068 Knots Heading: 299º Ground Speed: 414 Knots Altitude 28077 ft
16:28 Wind:320º@070 Knots Heading: 332º Ground Speed: 403 Knots Altitude 28070 ft
16:32 TOD
16:32 Fuel Weight: 30891 Lb
16:43 Wind:288º@028 Knots Heading: 318º Ground Speed: 324 Knots Altitude 11847 ft
16:52 Flaps:1 at 235 Knots
16:55 Flaps:2 at 224 Knots
16:55 Flaps:3 at 223 Knots
16:58 Wind:287º@013 Knots Heading: 227º Ground Speed: 211 Knots Altitude 3307 ft
16:58 Gear Down: 207 Knots
16:58 Flaps:4 at 204 Knots
16:58 Flaps:3 at 204 Knots
16:58 Flaps:4 at 201 Knots
16:58 Flaps:5 at 198 Knots
16:58 Flaps:6 at 196 Knots
16:58 Flaps:7 at 181 Knots
17:01 TouchDown:Rate -302 ft/min Speed: 155 Knots
17:01 VATSIM:LFRS 131630Z 26013KT 9999 BKN022 SCT029 21/16 Q1012 NOSIG
17:01 Land
17:01 Wind:248º@013 Knots
17:01 Heading: 206º
17:01 Flight Duration: 01:03
17:01 Landing Weight: 397984 Lbs
17:01 POS N47º 09´ 02´´ W001º 36´ 45´´
17:04 Parking brakes on
17:04 Block to Block Duration: 01:09
17:04 Final Fuel: 25630 Lbls
17:04 Spent Fuel: 19863 Lbls
17:04 Flight Length: 360 NM
17:04 TOD Land Length: 134 NM

Exportar CSV

Powered by Drupal - Modified by Danger4k